createdAt,value
2024-02-08T00:00:55.974Z,680.00
2024-02-08T00:01:55.935Z,676.00
2024-02-08T00:02:55.862Z,674.00
2024-02-08T00:03:55.935Z,671.00
2024-02-08T00:04:55.888Z,673.00
2024-02-08T00:05:55.935Z,672.00
2024-02-08T00:06:55.971Z,672.00
2024-02-08T00:07:56.007Z,672.00
2024-02-08T00:08:56.024Z,673.00
2024-02-08T00:09:56.006Z,675.00
2024-02-08T00:10:56.092Z,674.00
2024-02-08T00:11:56.120Z,676.00
2024-02-08T00:12:56.083Z,676.00
2024-02-08T00:13:56.175Z,677.00
2024-02-08T00:14:56.169Z,675.00
2024-02-08T00:15:58.916Z,675.00
2024-02-08T00:16:56.193Z,673.00
2024-02-08T00:17:56.180Z,670.00
2024-02-08T00:18:56.226Z,670.00
2024-02-08T00:19:56.126Z,669.00
2024-02-08T00:20:56.085Z,671.00
2024-02-08T00:21:56.084Z,669.00
2024-02-08T00:22:56.076Z,673.00
2024-02-08T00:23:56.079Z,669.00
2024-02-08T00:24:56.041Z,665.00
2024-02-08T00:25:56.057Z,662.00
2024-02-08T00:26:55.993Z,661.00
2024-02-08T00:27:56.010Z,663.00
2024-02-08T00:28:56.049Z,668.00
2024-02-08T00:29:56.010Z,668.00
2024-02-08T00:30:55.989Z,668.00
2024-02-08T00:31:56.033Z,668.00
2024-02-08T00:32:55.999Z,665.00
2024-02-08T00:33:55.990Z,664.00
2024-02-08T00:34:56.009Z,663.00
2024-02-08T00:35:55.938Z,664.00
2024-02-08T00:36:55.886Z,665.00
2024-02-08T00:37:56.018Z,669.00
2024-02-08T00:38:55.945Z,670.00
2024-02-08T00:39:55.873Z,668.00
2024-02-08T00:40:55.861Z,666.00
2024-02-08T00:41:55.796Z,666.00
2024-02-08T00:42:55.782Z,665.00
2024-02-08T00:43:55.858Z,666.00
2024-02-08T00:44:55.791Z,662.00
2024-02-08T00:45:55.822Z,664.00
2024-02-08T00:46:55.824Z,664.00
2024-02-08T00:47:56.072Z,662.00
2024-02-08T00:48:55.934Z,664.00
2024-02-08T00:49:55.745Z,664.00
2024-02-08T00:50:55.734Z,662.00
2024-02-08T00:51:55.726Z,660.00
2024-02-08T00:52:55.741Z,657.00
2024-02-08T00:53:55.860Z,659.00
2024-02-08T00:54:55.612Z,662.00
2024-02-08T00:55:55.666Z,661.00
2024-02-08T00:56:55.572Z,662.00
2024-02-08T00:57:55.675Z,658.00
2024-02-08T00:58:55.591Z,657.00
2024-02-08T00:59:55.570Z,658.00
2024-02-08T01:00:55.520Z,661.00
2024-02-08T01:01:55.621Z,662.00
2024-02-08T01:02:55.614Z,660.00
2024-02-08T01:03:55.961Z,659.00
2024-02-08T01:04:55.489Z,660.00
2024-02-08T01:05:55.476Z,660.00
2024-02-08T01:06:55.424Z,662.00
2024-02-08T01:07:55.391Z,665.00
2024-02-08T01:08:55.413Z,664.00
2024-02-08T01:09:55.344Z,661.00
2024-02-08T01:10:55.390Z,663.00
2024-02-08T01:11:55.335Z,660.00
2024-02-08T01:12:55.332Z,657.00
2024-02-08T01:13:55.367Z,656.00
2024-02-08T01:14:55.274Z,655.00
2024-02-08T01:15:55.250Z,653.00
2024-02-08T01:16:55.317Z,653.00
2024-02-08T01:17:55.325Z,652.00
2024-02-08T01:18:55.376Z,652.00
2024-02-08T01:19:55.246Z,652.00
2024-02-08T01:20:55.182Z,654.00
2024-02-08T01:21:55.193Z,656.00
2024-02-08T01:22:55.185Z,656.00
2024-02-08T01:23:55.153Z,657.00
2024-02-08T01:24:55.101Z,660.00
2024-02-08T01:25:55.127Z,660.00
2024-02-08T01:26:55.117Z,658.00
2024-02-08T01:27:55.083Z,654.00
2024-02-08T01:28:55.405Z,654.00
2024-02-08T01:29:55.036Z,652.00
2024-02-08T01:30:55.049Z,655.00
2024-02-08T01:31:55.072Z,655.00
2024-02-08T01:32:55.030Z,655.00
2024-02-08T01:33:55.090Z,656.00
2024-02-08T01:34:55.041Z,657.00
2024-02-08T01:35:54.973Z,657.00
2024-02-08T01:36:55.138Z,654.00
2024-02-08T01:37:55.194Z,656.00
2024-02-08T01:38:55.098Z,656.00
2024-02-08T01:39:55.116Z,656.00
2024-02-08T01:40:55.114Z,655.00
2024-02-08T01:41:55.114Z,654.00
2024-02-08T01:42:55.090Z,656.00
2024-02-08T01:43:55.162Z,659.00
2024-02-08T01:44:55.134Z,661.00
2024-02-08T01:45:55.148Z,660.00
2024-02-08T01:46:55.236Z,661.00
2024-02-08T01:47:55.296Z,663.00
2024-02-08T01:48:55.233Z,664.00
2024-02-08T01:49:55.231Z,664.00
2024-02-08T01:50:55.221Z,664.00
2024-02-08T01:51:55.256Z,660.00
2024-02-08T01:52:55.467Z,659.00
2024-02-08T01:53:55.309Z,657.00
2024-02-08T01:54:55.347Z,652.00
2024-02-08T01:55:55.454Z,653.00
2024-02-08T01:56:55.431Z,651.00
2024-02-08T01:57:55.485Z,651.00
2024-02-08T01:58:55.891Z,650.00
2024-02-08T01:59:55.545Z,648.00
2024-02-08T02:00:55.576Z,649.00
2024-02-08T02:01:55.584Z,650.00
2024-02-08T02:02:55.602Z,653.00
2024-02-08T02:03:55.675Z,652.00
2024-02-08T02:04:55.742Z,658.00
2024-02-08T02:05:55.689Z,658.00
2024-02-08T02:06:55.734Z,656.00
2024-02-08T02:07:55.791Z,657.00
2024-02-08T02:08:55.819Z,656.00
2024-02-08T02:09:55.859Z,656.00
2024-02-08T02:10:55.929Z,654.00
2024-02-08T02:11:55.957Z,656.00
2024-02-08T02:12:55.953Z,658.00
2024-02-08T02:13:55.969Z,659.00
2024-02-08T02:14:55.956Z,660.00
2024-02-08T02:15:55.959Z,658.00
2024-02-08T02:16:55.961Z,658.00
2024-02-08T02:17:56.015Z,656.00
2024-02-08T02:18:56.053Z,655.00
2024-02-08T02:19:56.052Z,655.00
2024-02-08T02:20:56.108Z,652.00
2024-02-08T02:21:56.112Z,653.00
2024-02-08T02:22:56.191Z,653.00
2024-02-08T02:23:56.167Z,652.00
2024-02-08T02:24:56.160Z,653.00
2024-02-08T02:25:56.253Z,650.00
2024-02-08T02:26:56.190Z,648.00
2024-02-08T02:27:56.146Z,650.00
2024-02-08T02:28:56.280Z,649.00
2024-02-08T02:29:56.127Z,649.00
2024-02-08T02:30:56.172Z,648.00
2024-02-08T02:31:56.231Z,649.00
2024-02-08T02:32:56.261Z,648.00
2024-02-08T02:33:56.304Z,650.00
2024-02-08T02:34:56.294Z,651.00
2024-02-08T02:35:56.301Z,650.00
2024-02-08T02:36:56.336Z,649.00
2024-02-08T02:37:56.386Z,646.00
2024-02-08T02:38:56.388Z,648.00
2024-02-08T02:39:56.433Z,648.00
2024-02-08T02:40:56.601Z,648.00
2024-02-08T02:41:56.492Z,648.00
2024-02-08T02:42:56.522Z,645.00
2024-02-08T02:43:57.008Z,646.00
2024-02-08T02:44:56.585Z,645.00
2024-02-08T02:45:56.676Z,646.00
2024-02-08T02:46:56.623Z,644.00
2024-02-08T02:47:56.682Z,645.00
2024-02-08T02:48:56.733Z,644.00
2024-02-08T02:49:56.734Z,641.00
2024-02-08T02:50:56.678Z,640.00
2024-02-08T02:51:56.642Z,637.00
2024-02-08T02:52:56.691Z,639.00
2024-02-08T02:53:56.872Z,638.00
2024-02-08T02:54:56.694Z,638.00
2024-02-08T02:55:56.696Z,639.00
2024-02-08T02:56:56.648Z,639.00
2024-02-08T02:57:56.688Z,635.00
2024-02-08T02:58:56.757Z,633.00
2024-02-08T02:59:56.628Z,632.00
2024-02-08T03:00:56.691Z,631.00
2024-02-08T03:01:56.706Z,634.00
2024-02-08T03:02:56.652Z,632.00
2024-02-08T03:03:56.732Z,631.00
2024-02-08T03:04:56.659Z,633.00
2024-02-08T03:05:56.597Z,633.00
2024-02-08T03:06:56.708Z,632.00
2024-02-08T03:07:56.751Z,633.00
2024-02-08T03:08:56.610Z,637.00
2024-02-08T03:09:56.627Z,636.00
2024-02-08T03:10:56.737Z,637.00
2024-02-08T03:11:56.588Z,634.00
2024-02-08T03:12:56.590Z,636.00
2024-02-08T03:13:56.683Z,635.00
2024-02-08T03:14:56.592Z,642.00
2024-02-08T03:15:56.652Z,641.00
2024-02-08T03:16:56.675Z,640.00
2024-02-08T03:17:56.675Z,638.00
2024-02-08T03:18:56.683Z,639.00
2024-02-08T03:19:56.645Z,638.00
2024-02-08T03:20:56.637Z,637.00
2024-02-08T03:21:56.657Z,637.00
2024-02-08T03:22:56.693Z,635.00
2024-02-08T03:23:56.691Z,636.00
2024-02-08T03:24:56.656Z,637.00
2024-02-08T03:25:56.688Z,638.00
2024-02-08T03:26:56.694Z,636.00
2024-02-08T03:27:56.686Z,639.00
2024-02-08T03:28:56.849Z,637.00
2024-02-08T03:29:56.799Z,636.00
2024-02-08T03:30:56.823Z,635.00
2024-02-08T03:31:56.873Z,636.00
2024-02-08T03:32:57.046Z,634.00
2024-02-08T03:33:56.990Z,635.00
2024-02-08T03:34:56.984Z,637.00
2024-02-08T03:35:56.927Z,637.00
2024-02-08T03:36:57.214Z,637.00
2024-02-08T03:37:57.268Z,636.00
2024-02-08T03:38:57.130Z,635.00
2024-02-08T03:39:57.161Z,635.00
2024-02-08T03:40:57.221Z,635.00
2024-02-08T03:41:57.188Z,633.00
2024-02-08T03:42:57.228Z,634.00
2024-02-08T03:43:57.219Z,636.00
2024-02-08T03:44:57.322Z,638.00
2024-02-08T03:45:57.393Z,635.00
2024-02-08T03:46:57.311Z,635.00
2024-02-08T03:47:57.275Z,635.00
2024-02-08T03:48:57.338Z,634.00
2024-02-08T03:49:57.349Z,635.00
2024-02-08T03:50:57.276Z,632.00
2024-02-08T03:51:57.302Z,629.00
2024-02-08T03:52:57.345Z,625.00
2024-02-08T03:53:57.380Z,624.00
2024-02-08T03:54:57.331Z,625.00
2024-02-08T03:55:57.457Z,626.00
2024-02-08T03:56:57.413Z,629.00
2024-02-08T03:57:57.411Z,631.00
2024-02-08T03:58:57.470Z,629.00
2024-02-08T03:59:57.425Z,629.00
2024-02-08T04:00:57.442Z,629.00
2024-02-08T04:01:57.473Z,630.00
2024-02-08T04:02:57.443Z,628.00
2024-02-08T04:03:57.546Z,630.00
2024-02-08T04:04:57.618Z,633.00
2024-02-08T04:05:57.597Z,634.00
2024-02-08T04:06:57.622Z,630.00
2024-02-08T04:07:57.660Z,630.00
2024-02-08T04:08:57.642Z,629.00
2024-02-08T04:09:58.074Z,626.00
2024-02-08T04:10:57.642Z,625.00
2024-02-08T04:11:57.660Z,624.00
2024-02-08T04:12:57.659Z,622.00
2024-02-08T04:13:57.739Z,619.00
2024-02-08T04:14:57.730Z,620.00
2024-02-08T04:16:00.577Z,620.00
2024-02-08T04:16:57.779Z,621.00
2024-02-08T04:17:57.876Z,622.00
2024-02-08T04:18:58.016Z,624.00
2024-02-08T04:19:57.713Z,625.00
2024-02-08T04:20:57.722Z,626.00
2024-02-08T04:21:57.714Z,626.00
2024-02-08T04:22:57.752Z,625.00
2024-02-08T04:23:57.659Z,624.00
2024-02-08T04:24:57.651Z,622.00
2024-02-08T04:26:05.045Z,636.00
2024-02-08T04:27:04.853Z,634.00
2024-02-08T04:28:04.918Z,639.00
2024-02-08T04:29:05.050Z,638.00
2024-02-08T04:30:04.908Z,636.00
2024-02-08T04:31:12.123Z,643.00
2024-02-08T04:32:12.187Z,638.00
2024-02-08T04:33:12.259Z,638.00
2024-02-08T04:34:12.313Z,637.00
2024-02-08T04:35:12.391Z,638.00
2024-02-08T04:36:12.154Z,641.00
2024-02-08T04:37:12.162Z,640.00
2024-02-08T04:38:12.239Z,638.00
2024-02-08T04:39:12.151Z,639.00
2024-02-08T04:40:12.158Z,640.00
2024-02-08T04:41:12.234Z,639.00
2024-02-08T04:42:12.197Z,639.00
2024-02-08T04:43:12.211Z,641.00
2024-02-08T04:44:12.261Z,640.00
2024-02-08T04:45:12.222Z,640.00
2024-02-08T04:46:12.231Z,641.00
2024-02-08T04:47:12.247Z,642.00
2024-02-08T04:48:12.262Z,640.00
2024-02-08T04:49:12.290Z,641.00
2024-02-08T04:50:12.212Z,641.00
2024-02-08T04:51:12.231Z,640.00
2024-02-08T04:52:14.570Z,640.00
2024-02-08T04:53:12.486Z,641.00
2024-02-08T04:54:12.543Z,640.00
2024-02-08T04:55:12.593Z,641.00
2024-02-08T04:56:12.739Z,645.00
2024-02-08T04:57:13.248Z,642.00
2024-02-08T04:58:36.220Z,638.00
2024-02-08T04:59:21.815Z,634.00
2024-02-08T05:00:13.842Z,632.00
2024-02-08T05:01:12.818Z,633.00
2024-02-08T05:02:12.831Z,635.00
2024-02-08T05:03:12.798Z,634.00
2024-02-08T05:04:12.965Z,632.00
2024-02-08T05:05:13.012Z,634.00
2024-02-08T05:06:12.922Z,634.00
2024-02-08T05:07:13.005Z,632.00
2024-02-08T05:08:12.903Z,634.00
2024-02-08T05:09:13.216Z,634.00
2024-02-08T05:10:12.984Z,635.00
2024-02-08T05:11:12.953Z,635.00
2024-02-08T05:12:12.906Z,634.00
2024-02-08T05:13:12.977Z,634.00
2024-02-08T05:14:12.925Z,635.00
2024-02-08T05:15:12.947Z,636.00
2024-02-08T05:16:12.960Z,640.00
2024-02-08T05:17:12.948Z,639.00
2024-02-08T05:18:13.087Z,638.00
2024-02-08T05:19:13.085Z,638.00
2024-02-08T05:20:12.964Z,639.00
2024-02-08T05:21:12.985Z,639.00
2024-02-08T05:22:13.072Z,639.00
2024-02-08T05:23:13.003Z,640.00
2024-02-08T05:24:13.229Z,639.00
2024-02-08T05:25:13.097Z,640.00
2024-02-08T05:26:13.173Z,641.00
2024-02-08T05:27:13.390Z,637.00
2024-02-08T05:28:13.303Z,635.00
2024-02-08T05:29:13.359Z,636.00
2024-02-08T05:30:13.406Z,635.00
2024-02-08T05:31:13.493Z,635.00
2024-02-08T05:32:13.553Z,637.00
2024-02-08T05:33:16.684Z,637.00
2024-02-08T05:34:17.224Z,637.00
2024-02-08T05:35:13.678Z,637.00
2024-02-08T05:36:13.609Z,637.00
2024-02-08T05:37:13.752Z,637.00
2024-02-08T05:38:13.641Z,633.00
2024-02-08T05:39:13.665Z,631.00
2024-02-08T05:40:13.746Z,631.00
2024-02-08T05:41:13.689Z,628.00
2024-02-08T05:42:13.699Z,628.00
2024-02-08T05:43:13.777Z,629.00
2024-02-08T05:44:13.930Z,629.00
2024-02-08T05:45:13.725Z,631.00
2024-02-08T05:46:13.851Z,629.00
2024-02-08T05:47:13.826Z,627.00
2024-02-08T05:48:13.911Z,625.00
2024-02-08T05:49:14.333Z,623.00
2024-02-08T05:50:14.075Z,621.00
2024-02-08T05:51:14.016Z,622.00
2024-02-08T05:52:14.134Z,623.00
2024-02-08T05:53:14.184Z,622.00
2024-02-08T05:54:14.263Z,624.00
2024-02-08T05:55:14.468Z,619.00
2024-02-08T05:56:14.378Z,617.00
2024-02-08T05:57:14.461Z,618.00
2024-02-08T05:58:14.544Z,622.00
2024-02-08T05:59:14.578Z,622.00
2024-02-08T06:00:14.666Z,621.00
2024-02-08T06:01:14.775Z,620.00
2024-02-08T06:02:14.897Z,623.00
2024-02-08T06:03:14.832Z,627.00
2024-02-08T06:04:15.036Z,627.00
2024-02-08T06:05:18.219Z,630.00
2024-02-08T06:06:15.009Z,630.00
2024-02-08T06:07:14.999Z,628.00
2024-02-08T06:08:15.039Z,626.00
2024-02-08T06:09:15.311Z,624.00
2024-02-08T06:10:16.087Z,624.00
2024-02-08T06:11:15.037Z,625.00
2024-02-08T06:12:15.048Z,622.00
2024-02-08T06:13:15.149Z,622.00
2024-02-08T06:14:15.036Z,623.00
2024-02-08T06:15:15.071Z,622.00
2024-02-08T06:16:15.086Z,621.00
2024-02-08T06:17:15.083Z,621.00
2024-02-08T06:18:15.150Z,622.00
2024-02-08T06:19:15.362Z,622.00
2024-02-08T06:20:15.113Z,623.00
2024-02-08T06:21:15.132Z,620.00
2024-02-08T06:22:15.116Z,619.00
2024-02-08T06:23:15.162Z,618.00
2024-02-08T06:24:15.235Z,617.00
2024-02-08T06:25:15.332Z,617.00
2024-02-08T06:26:15.346Z,615.00
2024-02-08T06:27:16.234Z,617.00
2024-02-08T06:28:15.499Z,615.00
2024-02-08T06:29:15.573Z,616.00
2024-02-08T06:30:15.704Z,615.00
2024-02-08T06:31:15.703Z,617.00
2024-02-08T06:32:15.765Z,613.00
2024-02-08T06:33:15.889Z,614.00
2024-02-08T06:34:15.996Z,616.00
2024-02-08T06:35:16.006Z,620.00
2024-02-08T06:36:16.028Z,621.00
2024-02-08T06:37:16.204Z,622.00
2024-02-08T06:38:16.188Z,621.00
2024-02-08T06:39:16.303Z,618.00
2024-02-08T06:40:16.353Z,617.00
2024-02-08T06:41:16.385Z,617.00
2024-02-08T06:42:16.451Z,619.00
2024-02-08T06:43:16.509Z,618.00
2024-02-08T06:44:16.602Z,617.00
2024-02-08T06:45:16.612Z,617.00
2024-02-08T06:46:16.742Z,617.00
2024-02-08T06:47:16.729Z,620.00
2024-02-08T06:48:17.013Z,621.00
2024-02-08T06:49:17.046Z,622.00
2024-02-08T06:50:16.953Z,624.00
2024-02-08T06:51:16.999Z,625.00
2024-02-08T06:52:17.104Z,625.00
2024-02-08T06:53:17.114Z,625.00
2024-02-08T06:54:17.313Z,623.00
2024-02-08T06:55:17.258Z,622.00
2024-02-08T06:56:17.301Z,621.00
2024-02-08T06:57:18.282Z,622.00
2024-02-08T06:58:17.471Z,623.00
2024-02-08T06:59:17.780Z,623.00
2024-02-08T07:00:17.502Z,627.00
2024-02-08T07:01:17.635Z,651.00
2024-02-08T07:02:17.652Z,663.00
2024-02-08T07:03:17.693Z,690.00
2024-02-08T07:04:18.895Z,766.00
2024-02-08T07:05:17.841Z,785.00
2024-02-08T07:06:17.775Z,786.00
2024-02-08T07:07:17.943Z,798.00
2024-02-08T07:08:17.971Z,794.00
2024-02-08T07:09:18.310Z,818.00
2024-02-08T07:10:17.995Z,883.00
2024-02-08T07:11:17.978Z,934.00
2024-02-08T07:12:18.029Z,927.00
2024-02-08T07:13:18.093Z,938.00
2024-02-08T07:14:18.284Z,949.00
2024-02-08T07:15:18.073Z,1035.00
2024-02-08T07:16:18.168Z,1026.00
2024-02-08T07:17:18.153Z,1029.00
2024-02-08T07:18:18.207Z,1033.00
2024-02-08T07:19:18.403Z,1029.00
2024-02-08T07:20:18.279Z,1022.00
2024-02-08T07:21:18.177Z,1013.00
2024-02-08T07:22:18.258Z,1020.00
2024-02-08T07:23:18.161Z,1029.00
2024-02-08T07:24:18.301Z,1042.00
2024-02-08T07:25:18.253Z,1110.00
2024-02-08T07:26:18.223Z,1113.00
2024-02-08T07:27:18.215Z,1121.00
2024-02-08T07:28:18.297Z,1157.00
2024-02-08T07:29:18.299Z,1166.00
2024-02-08T07:30:18.363Z,1171.00
2024-02-08T07:31:18.391Z,1180.00
2024-02-08T07:32:18.357Z,1181.00
2024-02-08T07:33:18.460Z,1169.00
2024-02-08T07:34:18.604Z,1169.00
2024-02-08T07:35:18.530Z,1179.00
2024-02-08T07:36:21.119Z,1206.00
2024-02-08T07:37:18.577Z,1250.00
2024-02-08T07:38:18.546Z,1235.00
2024-02-08T07:39:18.813Z,1231.00
2024-02-08T07:40:18.560Z,1238.00
2024-02-08T07:41:18.516Z,1262.00
2024-02-08T07:42:18.551Z,1280.00
2024-02-08T07:43:18.665Z,1287.00
2024-02-08T07:44:19.301Z,1312.00
2024-02-08T07:45:18.496Z,1321.00
2024-02-08T07:46:18.542Z,1341.00
2024-02-08T07:47:18.514Z,1359.00
2024-02-08T07:48:18.557Z,1373.00
2024-02-08T07:49:18.700Z,1369.00
2024-02-08T07:50:19.362Z,1377.00
2024-02-08T07:51:18.424Z,1398.00
2024-02-08T07:52:18.466Z,1405.00
2024-02-08T07:53:18.445Z,1486.00
2024-02-08T07:54:18.410Z,1453.00
2024-02-08T07:55:18.435Z,1439.00
2024-02-08T07:56:18.360Z,1434.00
2024-02-08T07:57:18.379Z,1444.00
2024-02-08T07:58:18.352Z,1443.00
2024-02-08T07:59:18.341Z,1446.00
2024-02-08T08:00:18.293Z,1448.00
2024-02-08T08:01:18.383Z,1457.00
2024-02-08T08:02:18.262Z,1529.00
2024-02-08T08:03:18.475Z,1516.00
2024-02-08T08:04:18.352Z,1513.00
2024-02-08T08:05:18.329Z,1539.00
2024-02-08T08:06:18.262Z,1545.00
2024-02-08T08:07:18.281Z,1561.00
2024-02-08T08:08:18.256Z,1568.00
2024-02-08T08:09:18.867Z,1574.00
2024-02-08T08:10:18.429Z,1580.00
2024-02-08T08:11:18.469Z,1584.00
2024-02-08T08:12:18.463Z,1624.00
2024-02-08T08:13:18.526Z,1643.00
2024-02-08T08:14:18.854Z,1652.00
2024-02-08T08:15:18.588Z,1712.00
2024-02-08T08:16:18.682Z,1774.00
2024-02-08T08:17:18.902Z,1723.00
2024-02-08T08:18:18.738Z,1728.00
2024-02-08T08:19:18.795Z,1750.00
2024-02-08T08:20:19.138Z,1804.00
2024-02-08T08:21:18.728Z,1829.00
2024-02-08T08:22:18.833Z,1883.00
2024-02-08T08:23:18.787Z,1849.00
2024-02-08T08:24:19.098Z,1742.00
2024-02-08T08:25:18.800Z,1716.00
2024-02-08T08:26:18.777Z,1715.00
2024-02-08T08:27:18.825Z,1717.00
2024-02-08T08:28:18.934Z,1726.00
2024-02-08T08:29:19.310Z,1765.00
2024-02-08T08:30:18.878Z,1783.00
2024-02-08T08:31:18.948Z,1800.00
2024-02-08T08:32:18.935Z,1809.00
2024-02-08T08:33:19.012Z,1800.00
2024-02-08T08:34:19.196Z,1797.00
2024-02-08T08:35:19.066Z,1800.00
2024-02-08T08:36:18.906Z,1798.00
2024-02-08T08:37:19.013Z,1802.00
2024-02-08T08:38:18.944Z,1798.00
2024-02-08T08:39:19.344Z,1803.00
2024-02-08T08:40:19.097Z,1803.00
2024-02-08T08:41:19.130Z,1800.00
2024-02-08T08:42:19.441Z,1795.00
2024-02-08T08:43:19.000Z,1794.00
2024-02-08T08:44:19.003Z,1788.00
2024-02-08T08:45:19.023Z,1785.00
2024-02-08T08:46:19.038Z,1781.00
2024-02-08T08:47:19.074Z,1777.00
2024-02-08T08:48:19.150Z,1766.00
2024-02-08T08:49:19.107Z,1760.00
2024-02-08T08:50:19.768Z,1769.00
2024-02-08T08:51:19.052Z,1774.00
2024-02-08T08:52:19.152Z,1785.00
2024-02-08T08:53:19.098Z,1793.00
2024-02-08T08:54:19.146Z,1793.00
2024-02-08T08:55:19.408Z,1785.00
2024-02-08T08:56:19.171Z,1771.00
2024-02-08T08:57:19.157Z,1761.00
2024-02-08T08:58:19.293Z,1752.00
2024-02-08T08:59:19.248Z,1738.00
2024-02-08T09:00:19.258Z,1726.00
2024-02-08T09:01:19.488Z,1711.00
2024-02-08T09:02:19.392Z,1716.00
2024-02-08T09:03:19.351Z,1711.00
2024-02-08T09:04:19.912Z,1709.00
2024-02-08T09:05:19.569Z,1707.00
2024-02-08T09:06:19.430Z,1695.00
2024-02-08T09:07:19.545Z,1685.00
2024-02-08T09:08:19.629Z,1676.00
2024-02-08T09:09:19.540Z,1664.00
2024-02-08T09:10:19.552Z,1656.00
2024-02-08T09:11:19.605Z,1653.00
2024-02-08T09:12:19.755Z,1649.00
2024-02-08T09:13:19.672Z,1652.00
2024-02-08T09:14:19.833Z,1645.00
2024-02-08T09:15:19.778Z,1634.00
2024-02-08T09:16:19.855Z,1624.00
2024-02-08T09:17:24.945Z,1618.00
2024-02-08T09:18:20.908Z,1610.00
2024-02-08T09:19:19.901Z,1604.00
2024-02-08T09:20:19.913Z,1598.00
2024-02-08T09:21:19.737Z,1595.00
2024-02-08T09:22:20.115Z,1592.00
2024-02-08T09:23:19.757Z,1589.00
2024-02-08T09:24:20.005Z,1583.00
2024-02-08T09:25:27.537Z,1581.00
2024-02-08T09:26:21.340Z,1578.00
2024-02-08T09:27:19.680Z,1578.00
2024-02-08T09:28:19.687Z,1573.00
2024-02-08T09:29:19.823Z,1570.00
2024-02-08T09:30:19.616Z,1565.00
2024-02-08T09:31:19.617Z,1555.00
2024-02-08T09:32:19.604Z,1550.00
2024-02-08T09:33:19.610Z,1542.00
2024-02-08T09:34:19.920Z,1530.00
2024-02-08T09:35:19.609Z,1530.00
2024-02-08T09:36:19.598Z,1525.00
2024-02-08T09:37:19.700Z,1522.00
2024-02-08T09:38:19.699Z,1513.00
2024-02-08T09:39:19.865Z,1511.00
2024-02-08T09:40:19.831Z,1507.00
2024-02-08T09:41:19.830Z,1506.00
2024-02-08T09:42:19.888Z,1505.00
2024-02-08T09:43:20.077Z,1501.00
2024-02-08T09:44:20.368Z,1499.00
2024-02-08T09:45:20.045Z,1494.00
2024-02-08T09:46:20.035Z,1491.00
2024-02-08T09:47:20.055Z,1482.00
2024-02-08T09:48:20.188Z,1481.00
2024-02-08T09:49:20.556Z,1478.00
2024-02-08T09:50:20.166Z,1478.00
2024-02-08T09:51:20.154Z,1475.00
2024-02-08T09:52:20.155Z,1475.00
2024-02-08T09:53:20.106Z,1465.00
2024-02-08T09:54:20.381Z,1462.00
2024-02-08T09:55:20.255Z,1459.00
2024-02-08T09:56:20.197Z,1449.00
2024-02-08T09:57:20.210Z,1444.00
2024-02-08T09:58:20.257Z,1437.00
2024-02-08T09:59:20.223Z,1437.00
2024-02-08T10:00:20.235Z,1436.00
2024-02-08T10:01:20.358Z,1436.00
2024-02-08T10:02:20.288Z,1434.00
2024-02-08T10:03:20.367Z,1434.00
2024-02-08T10:04:20.578Z,1431.00
2024-02-08T10:05:20.859Z,1430.00
2024-02-08T10:06:20.369Z,1428.00
2024-02-08T10:07:20.373Z,1425.00
2024-02-08T10:08:20.335Z,1424.00
2024-02-08T10:09:20.403Z,1416.00
2024-02-08T10:10:20.369Z,1416.00
2024-02-08T10:11:20.342Z,1414.00
2024-02-08T10:12:20.600Z,1412.00
2024-02-08T10:13:20.291Z,1410.00
2024-02-08T10:14:20.355Z,1409.00
2024-02-08T10:15:20.374Z,1409.00
2024-02-08T10:16:20.447Z,1406.00
2024-02-08T10:17:20.407Z,1401.00
2024-02-08T10:18:20.500Z,1394.00
2024-02-08T10:19:20.608Z,1395.00
2024-02-08T10:20:20.484Z,1393.00
2024-02-08T10:21:20.435Z,1390.00
2024-02-08T10:22:20.427Z,1387.00
2024-02-08T10:23:20.377Z,1382.00
2024-02-08T10:24:20.422Z,1378.00
2024-02-08T10:25:20.470Z,1376.00
2024-02-08T10:26:20.484Z,1376.00
2024-02-08T10:27:20.415Z,1373.00
2024-02-08T10:28:20.498Z,1370.00
2024-02-08T10:29:20.485Z,1366.00
2024-02-08T10:30:20.469Z,1368.00
2024-02-08T10:31:20.568Z,1367.00
2024-02-08T10:32:20.432Z,1364.00
2024-02-08T10:33:20.502Z,1357.00
2024-02-08T10:34:20.469Z,1353.00
2024-02-08T10:35:20.487Z,1351.00
2024-02-08T10:36:23.209Z,1349.00
2024-02-08T10:37:20.471Z,1347.00
2024-02-08T10:38:20.391Z,1345.00
2024-02-08T10:39:20.855Z,1340.00
2024-02-08T10:40:20.437Z,1337.00
2024-02-08T10:41:20.379Z,1337.00
2024-02-08T10:42:21.780Z,1339.00
2024-02-08T10:43:20.401Z,1338.00
2024-02-08T10:44:20.393Z,1338.00
2024-02-08T10:45:20.386Z,1334.00
2024-02-08T10:46:20.568Z,1330.00
2024-02-08T10:47:28.820Z,1333.00
2024-02-08T10:48:21.412Z,1334.00
2024-02-08T10:49:20.473Z,1330.00
2024-02-08T10:50:20.537Z,1327.00
2024-02-08T10:51:20.407Z,1322.00
2024-02-08T10:52:20.460Z,1320.00
2024-02-08T10:53:20.352Z,1321.00
2024-02-08T10:54:20.376Z,1326.00
2024-02-08T10:55:20.435Z,1327.00
2024-02-08T10:56:20.304Z,1330.00
2024-02-08T10:57:20.307Z,1337.00
2024-02-08T10:58:20.333Z,1349.00
2024-02-08T10:59:20.252Z,1364.00
2024-02-08T11:00:20.268Z,1362.00
2024-02-08T11:01:20.390Z,1363.00
2024-02-08T11:02:20.247Z,1363.00
2024-02-08T11:03:20.224Z,1359.00
2024-02-08T11:04:20.434Z,1361.00
2024-02-08T11:05:20.306Z,1366.00
2024-02-08T11:06:20.341Z,1371.00
2024-02-08T11:07:20.364Z,1378.00
2024-02-08T11:08:20.361Z,1394.00
2024-02-08T11:09:20.893Z,1397.00
2024-02-08T11:10:20.500Z,1403.00
2024-02-08T11:11:20.472Z,1412.00
2024-02-08T11:12:20.552Z,1424.00
2024-02-08T11:13:20.600Z,1435.00
2024-02-08T11:14:20.897Z,1440.00
2024-02-08T11:15:20.667Z,1449.00
2024-02-08T11:16:21.283Z,1457.00
2024-02-08T11:17:20.820Z,1463.00
2024-02-08T11:18:20.847Z,1473.00
2024-02-08T11:19:21.270Z,1480.00
2024-02-08T11:20:20.922Z,1481.00
2024-02-08T11:21:20.909Z,1485.00
2024-02-08T11:22:20.980Z,1490.00
2024-02-08T11:23:21.028Z,1493.00
2024-02-08T11:24:23.125Z,1500.00
2024-02-08T11:25:21.747Z,1515.00
2024-02-08T11:26:21.010Z,1520.00
2024-02-08T11:27:20.965Z,1524.00
2024-02-08T11:28:26.592Z,1527.00
2024-02-08T11:29:21.909Z,1534.00
2024-02-08T11:30:20.890Z,1541.00
2024-02-08T11:31:20.939Z,1545.00
2024-02-08T11:32:20.870Z,1549.00
2024-02-08T11:33:20.849Z,1556.00
2024-02-08T11:34:20.956Z,1593.00
2024-02-08T11:35:20.996Z,1601.00
2024-02-08T11:36:20.748Z,1610.00
2024-02-08T11:37:21.226Z,1629.00
2024-02-08T11:38:20.714Z,1639.00
2024-02-08T11:39:20.753Z,1655.00
2024-02-08T11:40:20.968Z,1673.00
2024-02-08T11:41:20.826Z,1681.00
2024-02-08T11:42:20.851Z,1704.00
2024-02-08T11:43:21.159Z,1711.00
2024-02-08T11:44:20.889Z,1731.00
2024-02-08T11:45:21.381Z,1743.00
2024-02-08T11:46:21.894Z,1742.00
2024-02-08T11:47:21.199Z,1744.00
2024-02-08T11:48:21.115Z,1748.00
2024-02-08T11:49:21.098Z,1751.00
2024-02-08T11:50:21.440Z,1756.00
2024-02-08T11:51:21.113Z,1755.00
2024-02-08T11:52:21.232Z,1756.00
2024-02-08T11:53:21.176Z,1761.00
2024-02-08T11:54:21.191Z,1769.00
2024-02-08T11:55:21.451Z,1770.00
2024-02-08T11:56:21.258Z,1777.00
2024-02-08T11:57:22.057Z,1782.00
2024-02-08T11:58:21.369Z,1792.00
2024-02-08T11:59:21.363Z,1795.00
2024-02-08T12:00:21.438Z,1801.00
2024-02-08T12:01:21.402Z,1794.00
2024-02-08T12:02:21.418Z,1779.00
2024-02-08T12:03:21.420Z,1771.00
2024-02-08T12:04:21.467Z,1769.00
2024-02-08T12:05:22.403Z,1773.00
2024-02-08T12:06:21.492Z,1778.00
2024-02-08T12:07:22.457Z,1784.00
2024-02-08T12:08:24.002Z,1789.00
2024-02-08T12:09:22.522Z,1798.00
2024-02-08T12:10:21.978Z,1816.00
2024-02-08T12:11:21.453Z,1820.00
2024-02-08T12:12:21.474Z,1831.00
2024-02-08T12:13:21.435Z,1847.00
2024-02-08T12:14:27.043Z,1866.00
2024-02-08T12:15:22.499Z,1873.00
2024-02-08T12:16:21.367Z,1886.00
2024-02-08T12:17:21.299Z,1889.00
2024-02-08T12:18:21.383Z,1894.00
2024-02-08T12:19:21.335Z,1898.00